Terminal Aerodrome Forecast
Issued by NWS

Home | Current Version | Previous Version | Text Only | Print | Product List | Glossary On
Versions: 1 2 3 4 5 6 7 8 9 10 11 12 13 14 15 16 17 18 19 20 21 22 23 24 25 26 27 28 29 30 31 32 33 34 35
000
FTUS45 KBOU 032350
TAFBJC
TAF
KBJC 032350Z 0400/0424 13012KT P6SM SCT100 BKN150
     FM040100 23012KT P6SM VCTS SCT080CB BKN120
      TEMPO 0401/0403 27020G30KT BKN080CB
     FM040600 26012KT P6SM FEW110
     FM041800 30014G22KT P6SM FEW110=

USA.gov is the U.S. government's official web portal to all federal, state and local government web resources and services.